Terminal Aerodrome Forecast
Issued by NWS

Home | Current Version | Previous Version | Text Only | Print | Product List | Glossary On
Versions: 1 2 3 4 5 6 7 8 9 10 11 12 13 14 15 16
000
FTUS43 KMPX 052113 AAA
TAFRNH
TAF AMD
KRNH 052113Z 0521/0618 17013G18KT P6SM FEW050
     FM060100 16006KT P6SM VCSH SCT050 BKN120
     FM060500 15008KT 6SM -SHRA BR BKN050 OVC100
      TEMPO 0606/0610 2SM TSRA BR SCT012 OVC025CB
     FM061000 16008KT 5SM -SHRA BR VCTS BKN015CB OVC030
     FM061600 31011KT 6SM -SHRA SCT015 OVC030=

USA.gov is the U.S. government's official web portal to all federal, state and local government web resources and services.